sensor_id;sensor_type;location;lat;lon;timestamp;temperature;humidity
7530;DHT22;3806;52.270;10.544;2023-10-08T00:02:17;15.00;99.90
7530;DHT22;3806;52.270;10.544;2023-10-08T00:04:50;14.90;99.90
7530;DHT22;3806;52.270;10.544;2023-10-08T00:07:17;14.90;99.90
7530;DHT22;3806;52.270;10.544;2023-10-08T00:09:49;14.90;99.90
7530;DHT22;3806;52.270;10.544;2023-10-08T00:12:17;14.90;99.90
7530;DHT22;3806;52.270;10.544;2023-10-08T00:14:44;14.80;99.90
7530;DHT22;3806;52.270;10.544;2023-10-08T00:17:11;14.80;99.90
7530;DHT22;3806;52.270;10.544;2023-10-08T00:19:37;14.90;99.90
7530;DHT22;3806;52.270;10.544;2023-10-08T00:22:04;14.90;99.90
7530;DHT22;3806;52.270;10.544;2023-10-08T00:24:31;14.90;99.90
7530;DHT22;3806;52.270;10.544;2023-10-08T00:26:59;14.90;99.90
7530;DHT22;3806;52.270;10.544;2023-10-08T00:29:26;14.90;99.90
7530;DHT22;3806;52.270;10.544;2023-10-08T00:31:52;14.90;99.90
7530;DHT22;3806;52.270;10.544;2023-10-08T00:34:18;14.90;99.90
7530;DHT22;3806;52.270;10.544;2023-10-08T00:36:47;14.90;99.90
7530;DHT22;3806;52.270;10.544;2023-10-08T00:39:14;14.80;99.90
7530;DHT22;3806;52.270;10.544;2023-10-08T00:41:44;14.80;99.90
7530;DHT22;3806;52.270;10.544;2023-10-08T00:44:11;14.80;99.90
7530;DHT22;3806;52.270;10.544;2023-10-08T00:46:43;14.80;99.90
7530;DHT22;3806;52.270;10.544;2023-10-08T00:49:13;14.70;99.90
7530;DHT22;3806;52.270;10.544;2023-10-08T00:51:51;14.80;99.90
7530;DHT22;3806;52.270;10.544;2023-10-08T00:54:49;14.70;99.90
7530;DHT22;3806;52.270;10.544;2023-10-08T00:57:33;14.70;99.90
7530;DHT22;3806;52.270;10.544;2023-10-08T01:00:05;14.60;99.90
7530;DHT22;3806;52.270;10.544;2023-10-08T01:02:43;14.60;99.90
7530;DHT22;3806;52.270;10.544;2023-10-08T01:05:15;14.50;99.90
7530;DHT22;3806;52.270;10.544;2023-10-08T01:07:46;14.50;99.90
7530;DHT22;3806;52.270;10.544;2023-10-08T01:10:16;14.60;99.90
7530;DHT22;3806;52.270;10.544;2023-10-08T01:12:48;14.40;99.90
7530;DHT22;3806;52.270;10.544;2023-10-08T01:15:29;14.40;99.90
7530;DHT22;3806;52.270;10.544;2023-10-08T01:17:56;14.30;99.90
7530;DHT22;3806;52.270;10.544;2023-10-08T01:20:41;14.30;99.90
7530;DHT22;3806;52.270;10.544;2023-10-08T01:23:12;14.20;99.90
7530;DHT22;3806;52.270;10.544;2023-10-08T01:25:49;14.10;99.90
7530;DHT22;3806;52.270;10.544;2023-10-08T01:28:23;14.00;99.90
7530;DHT22;3806;52.270;10.544;2023-10-08T01:31:00;13.80;99.90
7530;DHT22;3806;52.270;10.544;2023-10-08T01:33:29;13.60;99.90
7530;DHT22;3806;52.270;10.544;2023-10-08T01:36:02;13.30;99.90
7530;DHT22;3806;52.270;10.544;2023-10-08T01:38:33;13.20;99.90
7530;DHT22;3806;52.270;10.544;2023-10-08T01:40:59;13.10;99.90
7530;DHT22;3806;52.270;10.544;2023-10-08T01:43:47;13.10;99.90
7530;DHT22;3806;52.270;10.544;2023-10-08T01:46:12;13.10;99.90
7530;DHT22;3806;52.270;10.544;2023-10-08T01:48:40;13.20;99.90
7530;DHT22;3806;52.270;10.544;2023-10-08T01:51:10;13.20;99.90
7530;DHT22;3806;52.270;10.544;2023-10-08T01:53:40;13.20;99.90
7530;DHT22;3806;52.270;10.544;2023-10-08T01:56:06;13.20;99.90
7530;DHT22;3806;52.270;10.544;2023-10-08T01:58:32;13.30;99.90
7530;DHT22;3806;52.270;10.544;2023-10-08T02:01:00;13.30;99.90
7530;DHT22;3806;52.270;10.544;2023-10-08T02:03:26;13.40;99.90
7530;DHT22;3806;52.270;10.544;2023-10-08T02:05:55;13.40;99.90
7530;DHT22;3806;52.270;10.544;2023-10-08T02:08:24;13.50;99.90
7530;DHT22;3806;52.270;10.544;2023-10-08T02:10:51;13.50;99.90
7530;DHT22;3806;52.270;10.544;2023-10-08T02:13:18;13.50;99.90
7530;DHT22;3806;52.270;10.544;2023-10-08T02:15:49;13.50;99.90
7530;DHT22;3806;52.270;10.544;2023-10-08T02:18:17;13.60;99.90
7530;DHT22;3806;52.270;10.544;2023-10-08T02:20:43;13.60;99.90
7530;DHT22;3806;52.270;10.544;2023-10-08T02:23:09;13.60;99.90
7530;DHT22;3806;52.270;10.544;2023-10-08T02:25:38;13.60;99.90
7530;DHT22;3806;52.270;10.544;2023-10-08T02:28:08;13.70;99.90
7530;DHT22;3806;52.270;10.544;2023-10-08T02:30:35;13.70;99.90
7530;DHT22;3806;52.270;10.544;2023-10-08T02:33:02;13.70;99.90
7530;DHT22;3806;52.270;10.544;2023-10-08T02:35:27;13.70;99.90
7530;DHT22;3806;52.270;10.544;2023-10-08T02:37:53;13.70;99.90
7530;DHT22;3806;52.270;10.544;2023-10-08T02:40:20;13.80;99.90
7530;DHT22;3806;52.270;10.544;2023-10-08T02:42:51;13.80;99.90
7530;DHT22;3806;52.270;10.544;2023-10-08T02:45:20;13.80;99.90
7530;DHT22;3806;52.270;10.544;2023-10-08T02:47:47;13.80;99.90
7530;DHT22;3806;52.270;10.544;2023-10-08T02:50:12;13.80;99.90
7530;DHT22;3806;52.270;10.544;2023-10-08T02:52:43;13.80;99.90
7530;DHT22;3806;52.270;10.544;2023-10-08T02:55:10;13.80;99.90
7530;DHT22;3806;52.270;10.544;2023-10-08T02:57:49;13.80;99.90
7530;DHT22;3806;52.270;10.544;2023-10-08T03:00:16;13.90;99.90
7530;DHT22;3806;52.270;10.544;2023-10-08T03:02:44;13.90;99.90
7530;DHT22;3806;52.270;10.544;2023-10-08T03:05:11;13.80;99.90
7530;DHT22;3806;52.270;10.544;2023-10-08T03:07:39;13.80;99.90
7530;DHT22;3806;52.270;10.544;2023-10-08T03:10:05;13.90;99.90
7530;DHT22;3806;52.270;10.544;2023-10-08T03:12:45;13.90;99.90
7530;DHT22;3806;52.270;10.544;2023-10-08T03:15:15;13.90;99.90
7530;DHT22;3806;52.270;10.544;2023-10-08T03:18:03;13.90;99.90
7530;DHT22;3806;52.270;10.544;2023-10-08T03:20:40;13.90;99.90
7530;DHT22;3806;52.270;10.544;2023-10-08T03:23:12;13.90;99.90
7530;DHT22;3806;52.270;10.544;2023-10-08T03:25:39;13.90;99.90
7530;DHT22;3806;52.270;10.544;2023-10-08T03:28:11;13.90;99.90
7530;DHT22;3806;52.270;10.544;2023-10-08T03:30:39;13.80;99.90
7530;DHT22;3806;52.270;10.544;2023-10-08T03:33:18;13.80;99.90
7530;DHT22;3806;52.270;10.544;2023-10-08T03:35:52;13.80;99.90
7530;DHT22;3806;52.270;10.544;2023-10-08T03:38:21;13.80;99.90
7530;DHT22;3806;52.270;10.544;2023-10-08T03:40:54;13.80;99.90
7530;DHT22;3806;52.270;10.544;2023-10-08T03:43:23;13.80;99.90
7530;DHT22;3806;52.270;10.544;2023-10-08T03:46:00;13.80;99.90
7530;DHT22;3806;52.270;10.544;2023-10-08T03:48:33;13.80;99.90
7530;DHT22;3806;52.270;10.544;2023-10-08T03:51:03;13.80;99.90
7530;DHT22;3806;52.270;10.544;2023-10-08T03:53:38;13.80;99.90
7530;DHT22;3806;52.270;10.544;2023-10-08T03:56:23;13.70;99.90
7530;DHT22;3806;52.270;10.544;2023-10-08T03:58:50;13.80;99.90
7530;DHT22;3806;52.270;10.544;2023-10-08T04:01:19;13.70;99.90
7530;DHT22;3806;52.270;10.544;2023-10-08T04:03:46;13.70;99.90
7530;DHT22;3806;52.270;10.544;2023-10-08T04:06:19;13.70;99.90
7530;DHT22;3806;52.270;10.544;2023-10-08T04:08:48;13.70;99.90
7530;DHT22;3806;52.270;10.544;2023-10-08T04:11:47;13.70;99.90
7530;DHT22;3806;52.270;10.544;2023-10-08T04:14:13;13.70;99.90
7530;DHT22;3806;52.270;10.544;2023-10-08T04:16:39;13.70;99.90
7530;DHT22;3806;52.270;10.544;2023-10-08T04:19:05;13.70;99.90
7530;DHT22;3806;52.270;10.544;2023-10-08T04:21:30;13.70;99.90
7530;DHT22;3806;52.270;10.544;2023-10-08T04:23:59;13.70;99.90
7530;DHT22;3806;52.270;10.544;2023-10-08T04:26:33;13.70;99.90
7530;DHT22;3806;52.270;10.544;2023-10-08T04:29:00;13.70;99.90
7530;DHT22;3806;52.270;10.544;2023-10-08T04:31:35;13.70;99.90
7530;DHT22;3806;52.270;10.544;2023-10-08T04:34:12;13.70;99.90
7530;DHT22;3806;52.270;10.544;2023-10-08T04:36:42;13.70;99.90
7530;DHT22;3806;52.270;10.544;2023-10-08T04:39:10;13.70;99.90
7530;DHT22;3806;52.270;10.544;2023-10-08T04:41:42;13.60;99.90
7530;DHT22;3806;52.270;10.544;2023-10-08T04:44:08;13.60;99.90
7530;DHT22;3806;52.270;10.544;2023-10-08T04:46:40;13.60;99.90
7530;DHT22;3806;52.270;10.544;2023-10-08T04:49:13;13.60;99.90
7530;DHT22;3806;52.270;10.544;2023-10-08T04:51:57;13.60;99.90
7530;DHT22;3806;52.270;10.544;2023-10-08T04:54:27;13.60;99.90
7530;DHT22;3806;52.270;10.544;2023-10-08T04:57:04;13.50;99.90
7530;DHT22;3806;52.270;10.544;2023-10-08T04:59:31;13.60;99.90
7530;DHT22;3806;52.270;10.544;2023-10-08T05:02:04;13.50;99.90
7530;DHT22;3806;52.270;10.544;2023-10-08T05:04:51;13.50;99.90
7530;DHT22;3806;52.270;10.544;2023-10-08T05:07:16;13.50;99.90
7530;DHT22;3806;52.270;10.544;2023-10-08T05:09:44;13.40;99.90
7530;DHT22;3806;52.270;10.544;2023-10-08T05:12:28;13.50;99.90
7530;DHT22;3806;52.270;10.544;2023-10-08T05:15:00;13.50;99.90
7530;DHT22;3806;52.270;10.544;2023-10-08T05:17:47;13.50;99.90
7530;DHT22;3806;52.270;10.544;2023-10-08T05:20:19;13.40;99.90
7530;DHT22;3806;52.270;10.544;2023-10-08T05:22:56;13.40;99.90
7530;DHT22;3806;52.270;10.544;2023-10-08T05:25:31;13.40;99.90
7530;DHT22;3806;52.270;10.544;2023-10-08T05:28:19;13.40;99.90
7530;DHT22;3806;52.270;10.544;2023-10-08T05:30:50;13.40;99.90
7530;DHT22;3806;52.270;10.544;2023-10-08T05:33:30;13.40;99.90
7530;DHT22;3806;52.270;10.544;2023-10-08T05:36:16;13.40;99.90
7530;DHT22;3806;52.270;10.544;2023-10-08T05:38:53;13.40;99.90
7530;DHT22;3806;52.270;10.544;2023-10-08T05:41:27;13.40;99.90
7530;DHT22;3806;52.270;10.544;2023-10-08T05:43:53;13.40;99.90
7530;DHT22;3806;52.270;10.544;2023-10-08T05:46:40;13.40;99.90
7530;DHT22;3806;52.270;10.544;2023-10-08T05:49:16;13.40;99.90
7530;DHT22;3806;52.270;10.544;2023-10-08T05:52:01;13.40;99.90
7530;DHT22;3806;52.270;10.544;2023-10-08T05:54:27;13.40;99.90
7530;DHT22;3806;52.270;10.544;2023-10-08T05:57:03;13.40;99.90
7530;DHT22;3806;52.270;10.544;2023-10-08T05:59:35;13.50;99.90
7530;DHT22;3806;52.270;10.544;2023-10-08T06:02:24;13.50;99.90
7530;DHT22;3806;52.270;10.544;2023-10-08T06:04:59;13.60;99.90
7530;DHT22;3806;52.270;10.544;2023-10-08T06:07:42;13.50;99.90
7530;DHT22;3806;52.270;10.544;2023-10-08T06:12:57;13.60;99.90
7530;DHT22;3806;52.270;10.544;2023-10-08T06:15:28;13.60;99.90
7530;DHT22;3806;52.270;10.544;2023-10-08T06:18:15;13.60;99.90
7530;DHT22;3806;52.270;10.544;2023-10-08T06:20:41;13.60;99.90
7530;DHT22;3806;52.270;10.544;2023-10-08T06:23:15;13.70;99.90
7530;DHT22;3806;52.270;10.544;2023-10-08T06:25:44;13.70;99.90
7530;DHT22;3806;52.270;10.544;2023-10-08T06:28:19;13.70;99.90
7530;DHT22;3806;52.270;10.544;2023-10-08T06:30:49;13.70;99.90
7530;DHT22;3806;52.270;10.544;2023-10-08T06:33:15;13.80;99.90
7530;DHT22;3806;52.270;10.544;2023-10-08T06:35:42;13.80;99.90
7530;DHT22;3806;52.270;10.544;2023-10-08T06:38:11;13.90;99.90
7530;DHT22;3806;52.270;10.544;2023-10-08T06:40:37;13.90;99.90
7530;DHT22;3806;52.270;10.544;2023-10-08T06:43:03;13.90;99.90
7530;DHT22;3806;52.270;10.544;2023-10-08T06:45:41;14.00;99.90
7530;DHT22;3806;52.270;10.544;2023-10-08T06:48:07;14.00;99.90
7530;DHT22;3806;52.270;10.544;2023-10-08T06:50:34;14.20;99.90
7530;DHT22;3806;52.270;10.544;2023-10-08T06:53:03;14.20;99.90
7530;DHT22;3806;52.270;10.544;2023-10-08T06:55:33;14.30;99.90
7530;DHT22;3806;52.270;10.544;2023-10-08T06:58:01;14.40;99.90
7530;DHT22;3806;52.270;10.544;2023-10-08T07:00:37;14.40;99.90
7530;DHT22;3806;52.270;10.544;2023-10-08T07:03:04;14.40;99.90
7530;DHT22;3806;52.270;10.544;2023-10-08T07:05:33;14.40;99.90
7530;DHT22;3806;52.270;10.544;2023-10-08T07:08:04;14.40;99.90
7530;DHT22;3806;52.270;10.544;2023-10-08T07:10:32;14.40;99.90
7530;DHT22;3806;52.270;10.544;2023-10-08T07:13:00;14.50;99.90
7530;DHT22;3806;52.270;10.544;2023-10-08T07:15:25;14.50;99.90
7530;DHT22;3806;52.270;10.544;2023-10-08T07:17:52;14.50;99.90
7530;DHT22;3806;52.270;10.544;2023-10-08T07:20:17;14.60;99.90
7530;DHT22;3806;52.270;10.544;2023-10-08T07:22:47;14.70;99.90
7530;DHT22;3806;52.270;10.544;2023-10-08T07:25:22;14.90;99.90
7530;DHT22;3806;52.270;10.544;2023-10-08T07:27:48;15.20;99.90
7530;DHT22;3806;52.270;10.544;2023-10-08T07:30:14;15.80;99.90
7530;DHT22;3806;52.270;10.544;2023-10-08T07:32:52;16.30;99.90
7530;DHT22;3806;52.270;10.544;2023-10-08T07:35:20;17.00;99.90
7530;DHT22;3806;52.270;10.544;2023-10-08T07:37:45;17.50;99.90
7530;DHT22;3806;52.270;10.544;2023-10-08T07:40:15;17.90;99.90
7530;DHT22;3806;52.270;10.544;2023-10-08T07:42:41;18.10;99.90
7530;DHT22;3806;52.270;10.544;2023-10-08T07:45:07;18.30;99.90
7530;DHT22;3806;52.270;10.544;2023-10-08T07:47:32;18.40;99.70
7530;DHT22;3806;52.270;10.544;2023-10-08T07:49:58;18.40;99.10
7530;DHT22;3806;52.270;10.544;2023-10-08T07:52:36;18.40;98.70
7530;DHT22;3806;52.270;10.544;2023-10-08T07:55:02;18.30;98.30
7530;DHT22;3806;52.270;10.544;2023-10-08T07:57:30;18.30;98.10
7530;DHT22;3806;52.270;10.544;2023-10-08T07:59:56;18.20;97.90
7530;DHT22;3806;52.270;10.544;2023-10-08T08:02:42;18.20;97.90
7530;DHT22;3806;52.270;10.544;2023-10-08T08:05:07;18.00;97.80
7530;DHT22;3806;52.270;10.544;2023-10-08T08:07:33;18.00;97.90
7530;DHT22;3806;52.270;10.544;2023-10-08T08:09:59;17.90;97.80
7530;DHT22;3806;52.270;10.544;2023-10-08T08:12:25;17.90;97.70
7530;DHT22;3806;52.270;10.544;2023-10-08T08:14:52;17.80;97.50
7530;DHT22;3806;52.270;10.544;2023-10-08T08:17:18;17.70;97.30
7530;DHT22;3806;52.270;10.544;2023-10-08T08:19:48;17.70;97.30
7530;DHT22;3806;52.270;10.544;2023-10-08T08:22:16;17.70;97.30
7530;DHT22;3806;52.270;10.544;2023-10-08T08:24:50;17.80;97.30
7530;DHT22;3806;52.270;10.544;2023-10-08T08:27:20;17.80;97.10
7530;DHT22;3806;52.270;10.544;2023-10-08T08:29:57;18.00;96.80
7530;DHT22;3806;52.270;10.544;2023-10-08T08:32:26;18.30;96.40
7530;DHT22;3806;52.270;10.544;2023-10-08T08:34:54;18.40;96.00
7530;DHT22;3806;52.270;10.544;2023-10-08T08:37:20;18.70;95.80
7530;DHT22;3806;52.270;10.544;2023-10-08T08:39:52;19.10;95.30
7530;DHT22;3806;52.270;10.544;2023-10-08T08:42:21;19.50;94.20
7530;DHT22;3806;52.270;10.544;2023-10-08T08:44:50;19.90;93.40
7530;DHT22;3806;52.270;10.544;2023-10-08T08:47:17;20.30;92.60
7530;DHT22;3806;52.270;10.544;2023-10-08T08:49:44;20.40;91.30
7530;DHT22;3806;52.270;10.544;2023-10-08T08:52:14;20.60;90.80
7530;DHT22;3806;52.270;10.544;2023-10-08T08:54:41;20.70;90.40
7530;DHT22;3806;52.270;10.544;2023-10-08T08:57:09;21.20;89.70
7530;DHT22;3806;52.270;10.544;2023-10-08T08:59:52;22.10;87.70
7530;DHT22;3806;52.270;10.544;2023-10-08T09:02:19;24.10;79.40
7530;DHT22;3806;52.270;10.544;2023-10-08T09:04:45;26.20;65.00
7530;DHT22;3806;52.270;10.544;2023-10-08T09:07:13;27.90;57.70
7530;DHT22;3806;52.270;10.544;2023-10-08T09:09:39;29.20;49.10
7530;DHT22;3806;52.270;10.544;2023-10-08T09:12:11;30.40;45.60
7530;DHT22;3806;52.270;10.544;2023-10-08T09:14:37;32.20;42.20
7530;DHT22;3806;52.270;10.544;2023-10-08T09:17:05;33.90;37.70
7530;DHT22;3806;52.270;10.544;2023-10-08T09:19:36;35.20;30.90
7530;DHT22;3806;52.270;10.544;2023-10-08T09:22:05;36.10;29.40
7530;DHT22;3806;52.270;10.544;2023-10-08T09:24:35;36.90;28.40
7530;DHT22;3806;52.270;10.544;2023-10-08T09:27:11;36.80;27.50
7530;DHT22;3806;52.270;10.544;2023-10-08T09:29:40;36.10;27.60
7530;DHT22;3806;52.270;10.544;2023-10-08T09:32:12;35.90;27.10
7530;DHT22;3806;52.270;10.544;2023-10-08T09:34:49;35.60;27.40
7530;DHT22;3806;52.270;10.544;2023-10-08T09:37:18;35.00;27.30
7530;DHT22;3806;52.270;10.544;2023-10-08T09:39:48;34.30;27.40
7530;DHT22;3806;52.270;10.544;2023-10-08T09:42:16;33.20;27.60
7530;DHT22;3806;52.270;10.544;2023-10-08T09:44:44;32.30;27.90
7530;DHT22;3806;52.270;10.544;2023-10-08T09:47:10;31.60;28.50
7530;DHT22;3806;52.270;10.544;2023-10-08T09:50:02;31.10;28.90
7530;DHT22;3806;52.270;10.544;2023-10-08T09:52:37;30.90;29.50
7530;DHT22;3806;52.270;10.544;2023-10-08T09:55:09;31.50;29.40
7530;DHT22;3806;52.270;10.544;2023-10-08T09:57:37;32.00;28.90
7530;DHT22;3806;52.270;10.544;2023-10-08T10:00:07;32.50;28.50
7530;DHT22;3806;52.270;10.544;2023-10-08T10:02:41;33.00;27.80
7530;DHT22;3806;52.270;10.544;2023-10-08T10:05:11;32.50;27.70
7530;DHT22;3806;52.270;10.544;2023-10-08T10:07:37;31.90;28.00
7530;DHT22;3806;52.270;10.544;2023-10-08T10:10:26;31.60;28.20
7530;DHT22;3806;52.270;10.544;2023-10-08T10:12:52;31.60;27.60
7530;DHT22;3806;52.270;10.544;2023-10-08T10:15:20;31.50;27.90
7530;DHT22;3806;52.270;10.544;2023-10-08T10:17:47;31.20;28.10
7530;DHT22;3806;52.270;10.544;2023-10-08T10:20:13;31.70;28.60
7530;DHT22;3806;52.270;10.544;2023-10-08T10:22:42;32.10;28.10
7530;DHT22;3806;52.270;10.544;2023-10-08T10:25:10;31.40;27.90
7530;DHT22;3806;52.270;10.544;2023-10-08T10:30:33;30.20;28.60
7530;DHT22;3806;52.270;10.544;2023-10-08T10:33:03;31.50;27.20
7530;DHT22;3806;52.270;10.544;2023-10-08T10:35:31;32.90;26.20
7530;DHT22;3806;52.270;10.544;2023-10-08T10:37:58;34.20;25.20
7530;DHT22;3806;52.270;10.544;2023-10-08T10:40:29;35.20;24.10
7530;DHT22;3806;52.270;10.544;2023-10-08T10:43:07;36.10;23.40
7530;DHT22;3806;52.270;10.544;2023-10-08T10:45:35;36.00;22.90
7530;DHT22;3806;52.270;10.544;2023-10-08T10:48:05;34.50;23.10
7530;DHT22;3806;52.270;10.544;2023-10-08T10:50:40;32.60;23.90
7530;DHT22;3806;52.270;10.544;2023-10-08T10:53:25;31.30;25.40
7530;DHT22;3806;52.270;10.544;2023-10-08T10:55:52;31.40;25.40
7530;DHT22;3806;52.270;10.544;2023-10-08T10:58:28;32.30;25.10
7530;DHT22;3806;52.270;10.544;2023-10-08T11:01:03;33.40;24.30
7530;DHT22;3806;52.270;10.544;2023-10-08T11:03:49;34.40;23.90
7530;DHT22;3806;52.270;10.544;2023-10-08T11:06:17;35.30;22.80
7530;DHT22;3806;52.270;10.544;2023-10-08T11:08:52;35.60;21.80
7530;DHT22;3806;52.270;10.544;2023-10-08T11:11:18;35.40;22.60
7530;DHT22;3806;52.270;10.544;2023-10-08T11:13:44;35.10;22.80
7530;DHT22;3806;52.270;10.544;2023-10-08T11:16:15;34.70;22.70
7530;DHT22;3806;52.270;10.544;2023-10-08T11:18:45;33.50;23.10
7530;DHT22;3806;52.270;10.544;2023-10-08T11:21:16;31.80;24.60
7530;DHT22;3806;52.270;10.544;2023-10-08T11:23:47;30.10;25.60
7530;DHT22;3806;52.270;10.544;2023-10-08T11:26:19;29.60;26.70
7530;DHT22;3806;52.270;10.544;2023-10-08T11:28:45;30.00;27.00
7530;DHT22;3806;52.270;10.544;2023-10-08T11:31:15;30.80;26.50
7530;DHT22;3806;52.270;10.544;2023-10-08T11:33:46;31.50;25.50
7530;DHT22;3806;52.270;10.544;2023-10-08T11:36:22;32.10;24.60
7530;DHT22;3806;52.270;10.544;2023-10-08T11:38:53;32.40;23.50
7530;DHT22;3806;52.270;10.544;2023-10-08T11:41:26;32.20;23.90
7530;DHT22;3806;52.270;10.544;2023-10-08T11:43:54;31.70;24.30
7530;DHT22;3806;52.270;10.544;2023-10-08T11:46:24;31.00;24.90
7530;DHT22;3806;52.270;10.544;2023-10-08T11:48:54;30.00;25.40
7530;DHT22;3806;52.270;10.544;2023-10-08T11:51:24;28.80;26.40
7530;DHT22;3806;52.270;10.544;2023-10-08T11:53:50;27.70;27.10
7530;DHT22;3806;52.270;10.544;2023-10-08T11:56:17;26.80;28.20
7530;DHT22;3806;52.270;10.544;2023-10-08T11:58:46;26.00;29.20
7530;DHT22;3806;52.270;10.544;2023-10-08T12:01:12;25.30;29.80
7530;DHT22;3806;52.270;10.544;2023-10-08T12:03:45;24.70;30.00
7530;DHT22;3806;52.270;10.544;2023-10-08T12:06:11;24.20;30.60
7530;DHT22;3806;52.270;10.544;2023-10-08T12:08:41;24.00;31.10
7530;DHT22;3806;52.270;10.544;2023-10-08T12:11:07;23.80;31.10
7530;DHT22;3806;52.270;10.544;2023-10-08T12:13:38;23.50;30.90
7530;DHT22;3806;52.270;10.544;2023-10-08T12:16:03;23.30;31.50
7530;DHT22;3806;52.270;10.544;2023-10-08T12:18:33;23.40;31.50
7530;DHT22;3806;52.270;10.544;2023-10-08T12:21:05;23.40;31.60
7530;DHT22;3806;52.270;10.544;2023-10-08T12:23:36;23.30;32.00
7530;DHT22;3806;52.270;10.544;2023-10-08T12:26:06;23.60;31.80
7530;DHT22;3806;52.270;10.544;2023-10-08T12:28:33;23.70;31.20
7530;DHT22;3806;52.270;10.544;2023-10-08T12:31:00;23.90;31.10
7530;DHT22;3806;52.270;10.544;2023-10-08T12:33:26;24.00;30.90
7530;DHT22;3806;52.270;10.544;2023-10-08T12:35:52;24.00;31.00
7530;DHT22;3806;52.270;10.544;2023-10-08T12:38:24;24.10;31.80
7530;DHT22;3806;52.270;10.544;2023-10-08T12:40:53;24.60;32.30
7530;DHT22;3806;52.270;10.544;2023-10-08T12:43:24;25.20;32.10
7530;DHT22;3806;52.270;10.544;2023-10-08T12:45:53;25.70;31.50
7530;DHT22;3806;52.270;10.544;2023-10-08T12:50:45;26.50;29.60
7530;DHT22;3806;52.270;10.544;2023-10-08T12:53:17;26.80;29.30
7530;DHT22;3806;52.270;10.544;2023-10-08T12:55:43;26.90;28.90
7530;DHT22;3806;52.270;10.544;2023-10-08T12:58:08;27.00;28.40
7530;DHT22;3806;52.270;10.544;2023-10-08T13:00:39;27.00;28.50
7530;DHT22;3806;52.270;10.544;2023-10-08T13:03:07;27.10;28.30
7530;DHT22;3806;52.270;10.544;2023-10-08T13:05:49;27.10;28.00
7530;DHT22;3806;52.270;10.544;2023-10-08T13:08:18;27.00;27.30
7530;DHT22;3806;52.270;10.544;2023-10-08T13:10:45;26.80;27.60
7530;DHT22;3806;52.270;10.544;2023-10-08T13:13:11;26.20;28.20
7530;DHT22;3806;52.270;10.544;2023-10-08T13:15:38;25.50;29.10
7530;DHT22;3806;52.270;10.544;2023-10-08T13:18:04;25.10;29.70
7530;DHT22;3806;52.270;10.544;2023-10-08T13:20:30;24.70;30.00
7530;DHT22;3806;52.270;10.544;2023-10-08T13:23:03;24.40;30.00
7530;DHT22;3806;52.270;10.544;2023-10-08T13:25:31;24.20;30.40
7530;DHT22;3806;52.270;10.544;2023-10-08T13:28:01;24.00;30.60
7530;DHT22;3806;52.270;10.544;2023-10-08T13:30:27;23.80;30.90
7530;DHT22;3806;52.270;10.544;2023-10-08T13:32:53;23.70;31.30
7530;DHT22;3806;52.270;10.544;2023-10-08T13:35:19;23.70;31.20
7530;DHT22;3806;52.270;10.544;2023-10-08T13:37:44;23.80;31.60
7530;DHT22;3806;52.270;10.544;2023-10-08T13:40:13;23.70;31.60
7530;DHT22;3806;52.270;10.544;2023-10-08T13:42:43;23.60;31.70
7530;DHT22;3806;52.270;10.544;2023-10-08T13:45:10;23.30;32.10
7530;DHT22;3806;52.270;10.544;2023-10-08T13:47:42;23.10;32.90
7530;DHT22;3806;52.270;10.544;2023-10-08T13:50:07;22.90;32.60
7530;DHT22;3806;52.270;10.544;2023-10-08T13:52:36;22.70;32.30
7530;DHT22;3806;52.270;10.544;2023-10-08T13:55:08;22.60;32.50
7530;DHT22;3806;52.270;10.544;2023-10-08T13:57:41;22.50;33.50
7530;DHT22;3806;52.270;10.544;2023-10-08T14:00:08;22.60;34.20
7530;DHT22;3806;52.270;10.544;2023-10-08T14:02:41;22.70;34.10
7530;DHT22;3806;52.270;10.544;2023-10-08T14:05:08;22.70;34.30
7530;DHT22;3806;52.270;10.544;2023-10-08T14:07:35;22.60;34.60
7530;DHT22;3806;52.270;10.544;2023-10-08T14:10:01;22.50;35.40
7530;DHT22;3806;52.270;10.544;2023-10-08T14:12:31;22.30;35.70
7530;DHT22;3806;52.270;10.544;2023-10-08T14:15:00;22.10;36.30
7530;DHT22;3806;52.270;10.544;2023-10-08T14:17:31;21.80;37.00
7530;DHT22;3806;52.270;10.544;2023-10-08T14:20:09;21.50;37.30
7530;DHT22;3806;52.270;10.544;2023-10-08T14:22:39;21.30;37.50
7530;DHT22;3806;52.270;10.544;2023-10-08T14:25:07;21.00;38.40
7530;DHT22;3806;52.270;10.544;2023-10-08T14:27:37;20.80;38.70
7530;DHT22;3806;52.270;10.544;2023-10-08T14:30:08;20.60;39.60
7530;DHT22;3806;52.270;10.544;2023-10-08T14:32:41;20.40;40.30
7530;DHT22;3806;52.270;10.544;2023-10-08T14:35:14;20.20;40.10
7530;DHT22;3806;52.270;10.544;2023-10-08T14:38:00;20.00;40.40
7530;DHT22;3806;52.270;10.544;2023-10-08T14:40:44;19.90;41.50
7530;DHT22;3806;52.270;10.544;2023-10-08T14:43:28;19.80;41.90
7530;DHT22;3806;52.270;10.544;2023-10-08T14:46:00;19.70;42.20
7530;DHT22;3806;52.270;10.544;2023-10-08T14:48:30;19.60;42.00
7530;DHT22;3806;52.270;10.544;2023-10-08T14:50:56;19.50;41.90
7530;DHT22;3806;52.270;10.544;2023-10-08T14:53:21;19.40;41.80
7530;DHT22;3806;52.270;10.544;2023-10-08T14:55:47;19.40;42.10
7530;DHT22;3806;52.270;10.544;2023-10-08T14:58:14;19.40;42.50
7530;DHT22;3806;52.270;10.544;2023-10-08T15:00:39;19.40;42.50
7530;DHT22;3806;52.270;10.544;2023-10-08T15:03:07;19.40;42.90
7530;DHT22;3806;52.270;10.544;2023-10-08T15:05:34;19.40;43.30
7530;DHT22;3806;52.270;10.544;2023-10-08T15:08:02;19.40;43.60
7530;DHT22;3806;52.270;10.544;2023-10-08T15:10:29;19.30;43.10
7530;DHT22;3806;52.270;10.544;2023-10-08T15:12:55;19.20;42.90
7530;DHT22;3806;52.270;10.544;2023-10-08T15:15:22;19.20;43.00
7530;DHT22;3806;52.270;10.544;2023-10-08T15:17:50;19.20;44.00
7530;DHT22;3806;52.270;10.544;2023-10-08T15:20:17;19.20;43.80
7530;DHT22;3806;52.270;10.544;2023-10-08T15:22:46;19.10;44.10
7530;DHT22;3806;52.270;10.544;2023-10-08T15:25:16;19.10;43.50
7530;DHT22;3806;52.270;10.544;2023-10-08T15:27:45;19.00;43.80
7530;DHT22;3806;52.270;10.544;2023-10-08T15:30:14;18.90;44.80
7530;DHT22;3806;52.270;10.544;2023-10-08T15:32:45;18.80;45.60
7530;DHT22;3806;52.270;10.544;2023-10-08T15:35:15;18.70;46.60
7530;DHT22;3806;52.270;10.544;2023-10-08T15:37:48;18.60;47.30
7530;DHT22;3806;52.270;10.544;2023-10-08T15:40:14;18.50;47.60
7530;DHT22;3806;52.270;10.544;2023-10-08T15:42:44;18.40;48.20
7530;DHT22;3806;52.270;10.544;2023-10-08T15:45:09;18.30;48.50
7530;DHT22;3806;52.270;10.544;2023-10-08T15:47:38;18.20;48.90
7530;DHT22;3806;52.270;10.544;2023-10-08T15:50:04;18.10;49.70
7530;DHT22;3806;52.270;10.544;2023-10-08T15:52:30;18.00;49.70
7530;DHT22;3806;52.270;10.544;2023-10-08T15:54:57;17.90;50.30
7530;DHT22;3806;52.270;10.544;2023-10-08T15:57:23;17.90;51.50
7530;DHT22;3806;52.270;10.544;2023-10-08T15:59:48;17.80;52.20
7530;DHT22;3806;52.270;10.544;2023-10-08T16:02:15;17.70;52.40
7530;DHT22;3806;52.270;10.544;2023-10-08T16:04:41;17.70;52.60
7530;DHT22;3806;52.270;10.544;2023-10-08T16:07:06;17.60;52.80
7530;DHT22;3806;52.270;10.544;2023-10-08T16:09:32;17.50;53.60
7530;DHT22;3806;52.270;10.544;2023-10-08T16:11:57;17.50;54.60
7530;DHT22;3806;52.270;10.544;2023-10-08T16:14:24;17.40;55.50